Barrie, Canada
Current Conditions -  °F | °C
As of 4:01 AM on Thursday 23 Oct 2014 (Local Time) from CYBN Reporting Station
Clear Clear  
Wind Chill: 30°   Ceiling: Unl
Heat Index: 30°   Visibility: 2.5mi
Dew Point: 30°   Wind: 0mph
Humidity: 100%   Direction: NA
Pressure: 30.21"   Gusts: NA
Location:  44.39°N, 79.69°W
Report Text: CYBN 230801Z AUTO 00000KT 2 1/2SM CLR M01/M01 A3021 RMK VSBY VRBL 1.0V9.+
Loading
Personal Weather Stations






























Interactive Weather Map
Tropical Storm Tracking
New forecast layout! Learn more

10-Day Weather Forecast

Advertisements
Track Severe Weather on mobile